Time;durP1;ratioP1;P1;durP2;ratioP2;P2;SDS_P1;SDS_P2;PMS_P1;PMS_P2;Temp;Humidity;BMP_temperature;BMP_pressure;BME280_temperature;BME280_humidity;BME280_pressure;Samples;Min_cycle;Max_cycle;Signal;HPM_P1;HPM_P2
2021/05/14 00:01:19;;;;;;;0.00;0.00;;;;;;;;;;5092227;28;20172;-70
2021/05/14 00:03:45;;;;;;;0.10;0.10;;;;;;;;;;5092257;28;20179;-70
2021/05/14 00:06:12;;;;;;;0.10;0.10;;;;;;;;;;5092206;28;20183;-70
2021/05/14 00:08:38;;;;;;;0.10;0.10;;;;;;;;;;5092085;28;20198;-70
2021/05/14 00:11:04;;;;;;;0.20;0.20;;;;;;;;;;5091989;28;20235;-70
2021/05/14 00:13:31;;;;;;;0.10;0.10;;;;;;;;;;5109717;28;20191;-70
2021/05/14 00:15:58;;;;;;;0.20;0.20;;;;;;;;;;5110276;28;20144;-70
2021/05/14 00:18:24;;;;;;;0.10;0.10;;;;;;;;;;5110197;28;20254;-70
2021/05/14 00:20:51;;;;;;;0.10;0.10;;;;;;;;;;5110228;28;20213;-70
2021/05/14 00:23:17;;;;;;;0.00;0.00;;;;;;;;;;5110173;28;20156;-70
2021/05/14 00:25:43;;;;;;;0.10;0.10;;;;;;;;;;5110182;28;20212;-70
2021/05/14 00:28:10;;;;;;;0.10;0.10;;;;;;;;;;5110032;28;20179;-70
2021/05/14 00:30:38;;;;;;;0.10;0.10;;;;;;;;;;5110127;28;20238;-70
2021/05/14 00:33:04;;;;;;;0.10;0.10;;;;;;;;;;5091548;28;20195;-70
2021/05/14 00:35:31;;;;;;;0.10;0.10;;;;;;;;;;5110024;28;20183;-70
2021/05/14 00:37:57;;;;;;;0.10;0.10;;;;;;;;;;5109885;28;20159;-69
2021/05/14 00:40:23;;;;;;;0.00;0.00;;;;;;;;;;5109509;28;20223;-70
2021/05/14 00:42:49;;;;;;;0.00;0.00;;;;;;;;;;5109881;28;20558;-70
2021/05/14 00:45:15;;;;;;;0.00;0.00;;;;;;;;;;5109791;28;20159;-70
2021/05/14 00:47:42;;;;;;;0.08;0.08;;;;;;;;;;5109741;28;20163;-71
2021/05/14 00:50:08;;;;;;;0.10;0.10;;;;;;;;;;5109638;28;20265;-71
2021/05/14 00:52:35;;;;;;;0.10;0.10;;;;;;;;;;5109517;28;20202;-71
2021/05/14 00:55:01;;;;;;;0.30;0.30;;;;;;;;;;5109665;28;20244;-69
2021/05/14 00:57:28;;;;;;;0.10;0.10;;;;;;;;;;5108875;28;20152;-70
2021/05/14 00:59:55;;;;;;;0.10;0.10;;;;;;;;;;5109544;28;20213;-71
2021/05/14 01:02:21;;;;;;;0.45;0.30;;;;;;;;;;5109647;28;20220;-71
2021/05/14 01:04:48;;;;;;;0.10;0.10;;;;;;;;;;5109556;28;20163;-70
2021/05/14 01:07:14;;;;;;;0.75;0.30;;;;;;;;;;5109606;28;20188;-70
2021/05/14 01:09:41;;;;;;;0.03;0.03;;;;;;;;;;5109359;28;20201;-70
2021/05/14 01:12:12;;;;;;;0.10;0.10;;;;;;;;;;5109378;28;20191;-71
2021/05/14 01:14:38;;;;;;;0.10;0.10;;;;;;;;;;5109403;28;20162;-70
2021/05/14 01:17:05;;;;;;;0.10;0.10;;;;;;;;;;5109382;28;20215;-70
2021/05/14 01:19:31;;;;;;;0.22;0.22;;;;;;;;;;5109226;28;20194;-71
2021/05/14 01:21:58;;;;;;;0.20;0.20;;;;;;;;;;5109354;28;20155;-71
2021/05/14 01:24:24;;;;;;;0.00;0.00;;;;;;;;;;5109267;28;20230;-70
2021/05/14 01:26:50;;;;;;;0.65;0.55;;;;;;;;;;5109346;28;20239;-71
2021/05/14 01:29:17;;;;;;;0.77;0.77;;;;;;;;;;5090981;28;20226;-70
2021/05/14 01:31:43;;;;;;;0.20;0.20;;;;;;;;;;5090946;28;20177;-70
2021/05/14 01:34:09;;;;;;;0.10;0.10;;;;;;;;;;5109259;28;20163;-70
2021/05/14 01:36:37;;;;;;;0.00;0.00;;;;;;;;;;5109196;28;20160;-70
2021/05/14 01:39:11;;;;;;;0.10;0.10;;;;;;;;;;5109090;28;20187;-71
2021/05/14 01:41:38;;;;;;;0.50;0.50;;;;;;;;;;5109069;28;20163;-70
2021/05/14 01:44:05;;;;;;;0.20;0.20;;;;;;;;;;5106933;28;20250;-70
2021/05/14 01:46:31;;;;;;;0.10;0.10;;;;;;;;;;5108846;28;20225;-70
2021/05/14 01:48:57;;;;;;;0.32;0.32;;;;;;;;;;5090924;28;20183;-70
2021/05/14 01:51:24;;;;;;;0.10;0.10;;;;;;;;;;5109069;28;20576;-70
2021/05/14 01:53:51;;;;;;;0.30;0.28;;;;;;;;;;5108967;28;20192;-70
2021/05/14 01:56:18;;;;;;;0.10;0.10;;;;;;;;;;5090634;28;20214;-70
2021/05/14 01:58:46;;;;;;;0.20;0.20;;;;;;;;;;5090919;28;20201;-69
2021/05/14 02:01:12;;;;;;;0.10;0.10;;;;;;;;;;5109095;28;20160;-69
2021/05/14 02:03:39;;;;;;;0.10;0.10;;;;;;;;;;5090874;28;20207;-70
2021/05/14 02:06:05;;;;;;;0.30;0.30;;;;;;;;;;5108853;28;20216;-69
2021/05/14 02:08:31;;;;;;;0.10;0.10;;;;;;;;;;5091942;28;20179;-69
2021/05/14 02:10:58;;;;;;;0.10;0.10;;;;;;;;;;5094592;28;20178;-70
2021/05/14 02:13:24;;;;;;;0.30;0.30;;;;;;;;;;5094400;28;20191;-70
2021/05/14 02:15:50;;;;;;;0.03;0.03;;;;;;;;;;5094363;28;20199;-70
2021/05/14 02:18:16;;;;;;;0.10;0.10;;;;;;;;;;5112730;28;20224;-70
2021/05/14 02:20:42;;;;;;;0.10;0.10;;;;;;;;;;5094369;28;20588;-70
2021/05/14 02:23:08;;;;;;;0.10;0.10;;;;;;;;;;5094268;28;20208;-70
2021/05/14 02:25:35;;;;;;;1.27;0.40;;;;;;;;;;5094192;28;20226;-70
2021/05/14 02:28:02;;;;;;;0.10;0.10;;;;;;;;;;5094169;28;20175;-70
2021/05/14 02:30:28;;;;;;;0.10;0.10;;;;;;;;;;5112335;28;20258;-70
2021/05/14 02:32:55;;;;;;;0.10;0.10;;;;;;;;;;5093988;28;20331;-70
2021/05/14 02:35:21;;;;;;;0.52;0.52;;;;;;;;;;5093716;28;20201;-70
2021/05/14 02:37:47;;;;;;;0.15;0.15;;;;;;;;;;5112200;28;20186;-69
2021/05/14 02:40:14;;;;;;;0.70;0.70;;;;;;;;;;5111855;28;20233;-70
2021/05/14 02:42:40;;;;;;;0.00;0.00;;;;;;;;;;5111871;28;20198;-71
2021/05/14 02:45:07;;;;;;;0.10;0.10;;;;;;;;;;5111623;28;20202;-70
2021/05/14 02:47:34;;;;;;;0.47;0.47;;;;;;;;;;5111556;28;20271;-70
2021/05/14 02:50:00;;;;;;;0.20;0.20;;;;;;;;;;5111574;28;20155;-69
2021/05/14 02:52:26;;;;;;;0.73;0.25;;;;;;;;;;5093300;28;20207;-69
2021/05/14 02:54:52;;;;;;;0.35;0.35;;;;;;;;;;5111460;28;20195;-71
2021/05/14 02:57:21;;;;;;;0.10;0.10;;;;;;;;;;5111538;28;20229;-69
2021/05/14 02:59:47;;;;;;;0.10;0.10;;;;;;;;;;5111391;28;20143;-71
2021/05/14 03:02:13;;;;;;;0.13;0.13;;;;;;;;;;5111470;28;20242;-71
2021/05/14 03:04:39;;;;;;;0.20;0.20;;;;;;;;;;5111344;28;20198;-71
2021/05/14 03:07:06;;;;;;;0.20;0.20;;;;;;;;;;5093024;28;20172;-71
2021/05/14 03:09:32;;;;;;;0.00;0.00;;;;;;;;;;5111093;28;20156;-71
2021/05/14 03:11:58;;;;;;;0.40;0.40;;;;;;;;;;5111209;28;20159;-70
2021/05/14 03:14:24;;;;;;;0.17;0.17;;;;;;;;;;5111235;28;20201;-69
2021/05/14 03:16:50;;;;;;;0.10;0.10;;;;;;;;;;5111202;28;20167;-71
2021/05/14 03:19:17;;;;;;;0.35;0.35;;;;;;;;;;5110794;28;20213;-71
2021/05/14 03:21:43;;;;;;;0.22;0.22;;;;;;;;;;5110682;28;20242;-70
2021/05/14 03:24:10;;;;;;;0.10;0.10;;;;;;;;;;5111183;28;20159;-69
2021/05/14 03:26:36;;;;;;;0.10;0.10;;;;;;;;;;5111022;28;20170;-70
2021/05/14 03:29:03;;;;;;;0.20;0.20;;;;;;;;;;5111169;28;20215;-70
2021/05/14 03:31:29;;;;;;;0.10;0.10;;;;;;;;;;5111032;28;20163;-69
2021/05/14 03:33:55;;;;;;;0.08;0.08;;;;;;;;;;5110812;28;20191;-70
2021/05/14 03:36:22;;;;;;;0.10;0.10;;;;;;;;;;5110788;28;20215;-70
2021/05/14 03:38:49;;;;;;;0.28;0.28;;;;;;;;;;5110784;28;20175;-70
2021/05/14 03:43:58;;;;;;;2.28;0.90;;;;;;;;;;5110594;28;20163;-69
2021/05/14 03:46:26;;;;;;;0.15;0.15;;;;;;;;;;5110637;28;20175;-69
2021/05/14 03:48:52;;;;;;;0.10;0.10;;;;;;;;;;5092204;28;20167;-68
2021/05/14 03:51:18;;;;;;;0.10;0.10;;;;;;;;;;5110418;28;20197;-71
2021/05/14 03:53:45;;;;;;;0.10;0.10;;;;;;;;;;5110356;28;20202;-70
2021/05/14 03:56:11;;;;;;;0.95;0.52;;;;;;;;;;5092180;28;20283;-69
2021/05/14 03:58:37;;;;;;;0.10;0.10;;;;;;;;;;5110358;28;20155;-68
2021/05/14 04:01:03;;;;;;;0.10;0.10;;;;;;;;;;5092058;28;20482;-70
2021/05/14 04:03:30;;;;;;;0.10;0.10;;;;;;;;;;5110065;28;20163;-70
2021/05/14 04:05:56;;;;;;;0.10;0.10;;;;;;;;;;5092023;28;20201;-69
2021/05/14 04:08:22;;;;;;;0.10;0.10;;;;;;;;;;5109954;28;20242;-70
2021/05/14 04:11:03;;;;;;;0.20;0.20;;;;;;;;;;5091763;28;20187;-69
2021/05/14 04:16:14;;;;;;;0.08;0.08;;;;;;;;;;5110206;28;20608;-69
2021/05/14 04:18:40;;;;;;;0.10;0.10;;;;;;;;;;5110009;28;20159;-70
2021/05/14 04:21:07;;;;;;;0.30;0.30;;;;;;;;;;5110060;28;20161;-70
2021/05/14 04:23:33;;;;;;;0.10;0.10;;;;;;;;;;5091876;28;20189;-70
2021/05/14 04:26:00;;;;;;;0.40;0.40;;;;;;;;;;5109990;28;20195;-70
2021/05/14 04:28:26;;;;;;;0.20;0.20;;;;;;;;;;5109905;28;20562;-70
2021/05/14 04:30:52;;;;;;;0.10;0.10;;;;;;;;;;5109790;28;20166;-70
2021/05/14 04:33:19;;;;;;;0.08;0.08;;;;;;;;;;5091541;28;20199;-70
2021/05/14 04:35:45;;;;;;;0.10;0.10;;;;;;;;;;5109868;28;20221;-70
2021/05/14 04:38:11;;;;;;;0.10;0.10;;;;;;;;;;5109634;28;20171;-70
2021/05/14 04:40:37;;;;;;;0.08;0.08;;;;;;;;;;5091464;28;20290;-70
2021/05/14 04:43:04;;;;;;;0.10;0.10;;;;;;;;;;5109765;28;20217;-69
2021/05/14 04:45:31;;;;;;;0.03;0.03;;;;;;;;;;5109615;28;20195;-70
2021/05/14 04:47:59;;;;;;;0.10;0.10;;;;;;;;;;5091678;28;20167;-70
2021/05/14 04:50:26;;;;;;;0.65;0.57;;;;;;;;;;5109648;28;20194;-70
2021/05/14 04:53:04;;;;;;;0.20;0.20;;;;;;;;;;5109446;28;20283;-70
2021/05/14 04:55:30;;;;;;;0.63;0.63;;;;;;;;;;5109494;28;20750;-71
2021/05/14 04:57:56;;;;;;;0.10;0.10;;;;;;;;;;5109594;28;20160;-70
2021/05/14 05:00:23;;;;;;;0.17;0.17;;;;;;;;;;5109459;28;20160;-70
2021/05/14 05:02:49;;;;;;;0.10;0.10;;;;;;;;;;5091306;28;20175;-70
2021/05/14 05:05:15;;;;;;;0.10;0.10;;;;;;;;;;5109274;28;20211;-69
2021/05/14 05:07:42;;;;;;;0.08;0.08;;;;;;;;;;5091171;28;20253;-69
2021/05/14 05:10:08;;;;;;;0.05;0.05;;;;;;;;;;5091270;28;20175;-70
2021/05/14 05:12:34;;;;;;;0.10;0.10;;;;;;;;;;5109293;28;20239;-69
2021/05/14 05:15:01;;;;;;;0.25;0.25;;;;;;;;;;5109371;28;20201;-70
2021/05/14 05:17:27;;;;;;;0.30;0.30;;;;;;;;;;5109067;28;20163;-70
2021/05/14 05:19:55;;;;;;;1.30;0.47;;;;;;;;;;5108851;28;20171;-69
2021/05/14 05:22:24;;;;;;;0.50;0.50;;;;;;;;;;5109137;28;20212;-70
2021/05/14 05:24:50;;;;;;;0.10;0.10;;;;;;;;;;5108944;28;20210;-69
2021/05/14 05:27:16;;;;;;;0.10;0.10;;;;;;;;;;5109016;28;20163;-70
2021/05/14 05:29:43;;;;;;;0.10;0.10;;;;;;;;;;5109023;28;20155;-69
2021/05/14 05:32:09;;;;;;;0.50;0.50;;;;;;;;;;5108842;28;20195;-69
2021/05/14 05:34:35;;;;;;;0.00;0.00;;;;;;;;;;5109098;28;20250;-69
2021/05/14 05:37:02;;;;;;;0.10;0.10;;;;;;;;;;5108931;28;20254;-70
2021/05/14 05:39:28;;;;;;;0.10;0.10;;;;;;;;;;5108661;28;20167;-70
2021/05/14 05:41:55;;;;;;;0.20;0.20;;;;;;;;;;5108797;28;20197;-69
2021/05/14 05:44:21;;;;;;;2.38;1.13;;;;;;;;;;5092991;28;20198;-70
2021/05/14 05:46:47;;;;;;;0.55;0.52;;;;;;;;;;5094817;28;20171;-70
2021/05/14 05:49:13;;;;;;;0.10;0.10;;;;;;;;;;5094430;28;20172;-69
2021/05/14 05:51:40;;;;;;;0.10;0.10;;;;;;;;;;5113055;28;20156;-70
2021/05/14 05:54:08;;;;;;;0.20;0.20;;;;;;;;;;5112708;28;20194;-69
2021/05/14 05:56:34;;;;;;;0.70;0.70;;;;;;;;;;5112705;28;20255;-70
2021/05/14 05:59:01;;;;;;;0.10;0.10;;;;;;;;;;5112514;28;20160;-70
2021/05/14 06:01:27;;;;;;;0.17;0.17;;;;;;;;;;5094356;28;20201;-70
2021/05/14 06:03:54;;;;;;;0.32;0.32;;;;;;;;;;5112655;28;20159;-70
2021/05/14 06:06:21;;;;;;;0.35;0.35;;;;;;;;;;5094215;28;20198;-69
2021/05/14 06:08:47;;;;;;;0.30;0.30;;;;;;;;;;5112365;28;20510;-68
2021/05/14 06:11:14;;;;;;;0.57;0.20;;;;;;;;;;5112718;28;20162;-68
2021/05/14 06:13:40;;;;;;;0.85;0.52;;;;;;;;;;5112209;28;20262;-69
2021/05/14 06:16:06;;;;;;;0.50;0.50;;;;;;;;;;5112072;28;20201;-68
2021/05/14 06:18:40;;;;;;;1.55;0.90;;;;;;;;;;5112478;28;20159;-68
2021/05/14 06:21:07;;;;;;;1.80;0.90;;;;;;;;;;5112410;28;20156;-69
2021/05/14 06:23:33;;;;;;;0.30;0.20;;;;;;;;;;5112458;28;20167;-68
2021/05/14 06:26:00;;;;;;;0.30;0.30;;;;;;;;;;5112306;28;20190;-68
2021/05/14 06:28:26;;;;;;;0.50;0.50;;;;;;;;;;5112204;28;20166;-68
2021/05/14 06:30:53;;;;;;;0.20;0.20;;;;;;;;;;5112035;28;20191;-68
2021/05/14 06:33:19;;;;;;;0.00;0.00;;;;;;;;;;5111799;28;20191;-68
2021/05/14 06:35:47;;;;;;;0.50;0.50;;;;;;;;;;5111967;28;20286;-69
2021/05/14 06:38:14;;;;;;;0.20;0.20;;;;;;;;;;5112104;28;20143;-69
2021/05/14 06:40:40;;;;;;;0.00;0.00;;;;;;;;;;5090169;28;20229;-69
2021/05/14 06:43:07;;;;;;;0.30;0.30;;;;;;;;;;5091242;28;20219;-69
2021/05/14 06:45:33;;;;;;;0.25;0.25;;;;;;;;;;5084915;28;20194;-69
2021/05/14 06:48:03;;;;;;;0.43;0.40;;;;;;;;;;5071263;28;20195;-69
2021/05/14 06:50:29;;;;;;;0.10;0.10;;;;;;;;;;5070087;28;20207;-69
2021/05/14 06:52:56;;;;;;;0.20;0.20;;;;;;;;;;5073032;28;20199;-69
2021/05/14 06:55:22;;;;;;;0.80;0.30;;;;;;;;;;5079942;28;20234;-70
2021/05/14 06:57:49;;;;;;;0.65;0.65;;;;;;;;;;5077567;28;20164;-70
2021/05/14 07:00:18;;;;;;;0.38;0.10;;;;;;;;;;5091224;28;20167;-70
2021/05/14 07:02:45;;;;;;;0.17;0.17;;;;;;;;;;5077508;28;20164;-70
2021/05/14 07:05:11;;;;;;;0.20;0.20;;;;;;;;;;5071140;28;20274;-71
2021/05/14 07:07:38;;;;;;;5.75;0.35;;;;;;;;;;5070933;28;20160;-70
2021/05/14 07:10:05;;;;;;;1.23;0.20;;;;;;;;;;5072771;28;20171;-70
2021/05/14 07:12:31;;;;;;;0.00;0.00;;;;;;;;;;5089412;28;20653;-70
2021/05/14 07:14:58;;;;;;;0.10;0.10;;;;;;;;;;5090642;28;20191;-70
2021/05/14 07:17:24;;;;;;;0.10;0.10;;;;;;;;;;5088769;28;20163;-70
2021/05/14 07:19:50;;;;;;;0.10;0.10;;;;;;;;;;5080021;28;20165;-70
2021/05/14 07:22:16;;;;;;;13.27;0.28;;;;;;;;;;5070727;28;20275;-70
2021/05/14 07:24:43;;;;;;;0.90;0.43;;;;;;;;;;5070476;28;20217;-71
2021/05/14 07:27:09;;;;;;;0.00;0.00;;;;;;;;;;5074247;28;20183;-70
2021/05/14 07:29:35;;;;;;;0.38;0.08;;;;;;;;;;5090635;28;20164;-71
2021/05/14 07:32:01;;;;;;;0.25;0.25;;;;;;;;;;5090573;28;20210;-70
2021/05/14 07:34:27;;;;;;;0.05;0.05;;;;;;;;;;5090468;28;20191;-71
2021/05/14 07:36:53;;;;;;;0.00;0.00;;;;;;;;;;5089461;28;20155;-71
2021/05/14 07:39:19;;;;;;;0.03;0.03;;;;;;;;;;5091443;28;20160;-71
2021/05/14 07:41:46;;;;;;;0.00;0.00;;;;;;;;;;5110676;28;20190;-71
2021/05/14 07:44:12;;;;;;;0.75;0.35;;;;;;;;;;5097286;28;20186;-70
2021/05/14 07:46:38;;;;;;;0.20;0.20;;;;;;;;;;5096266;28;20226;-71
2021/05/14 07:49:04;;;;;;;0.10;0.10;;;;;;;;;;5109650;28;20185;-71
2021/05/14 07:51:30;;;;;;;0.10;0.10;;;;;;;;;;5090405;28;20207;-70
2021/05/14 07:53:57;;;;;;;0.10;0.10;;;;;;;;;;5091515;28;20217;-70
2021/05/14 07:56:23;;;;;;;0.00;0.00;;;;;;;;;;5092272;28;20170;-69
2021/05/14 07:58:50;;;;;;;0.00;0.00;;;;;;;;;;5110176;28;20178;-70
2021/05/14 08:01:16;;;;;;;0.00;0.00;;;;;;;;;;5116416;28;20197;-70
2021/05/14 08:03:42;;;;;;;0.10;0.10;;;;;;;;;;5112446;28;20179;-70
2021/05/14 08:06:08;;;;;;;0.10;0.10;;;;;;;;;;5104614;28;20182;-71
2021/05/14 08:08:38;;;;;;;0.00;0.00;;;;;;;;;;5104584;28;20197;-70
2021/05/14 08:11:05;;;;;;;0.05;0.05;;;;;;;;;;5089337;28;20251;-71
2021/05/14 08:13:31;;;;;;;0.10;0.10;;;;;;;;;;5106787;28;20201;-70
2021/05/14 08:15:57;;;;;;;0.00;0.00;;;;;;;;;;5130330;28;20173;-70
2021/05/14 08:18:23;;;;;;;0.10;0.10;;;;;;;;;;5111282;28;20159;-69
2021/05/14 08:20:50;;;;;;;0.03;0.03;;;;;;;;;;5102683;28;20195;-70
2021/05/14 08:23:19;;;;;;;0.10;0.10;;;;;;;;;;5094452;28;20171;-69
2021/05/14 08:25:45;;;;;;;0.10;0.10;;;;;;;;;;5099159;28;20158;-69
2021/05/14 08:28:12;;;;;;;0.08;0.08;;;;;;;;;;5099445;28;20208;-70
2021/05/14 08:30:39;;;;;;;0.00;0.00;;;;;;;;;;5105734;28;20169;-70
2021/05/14 08:33:05;;;;;;;0.10;0.10;;;;;;;;;;5083825;28;20290;-70
2021/05/14 08:35:31;;;;;;;0.00;0.00;;;;;;;;;;5109119;28;20186;-70
2021/05/14 08:37:58;;;;;;;0.10;0.10;;;;;;;;;;5091334;28;20191;-71
2021/05/14 08:40:24;;;;;;;0.00;0.00;;;;;;;;;;5109116;28;20214;-70
2021/05/14 08:42:52;;;;;;;0.10;0.10;;;;;;;;;;5109424;28;20193;-70
2021/05/14 08:45:19;;;;;;;0.00;0.00;;;;;;;;;;5091470;28;20183;-71
2021/05/14 08:47:45;;;;;;;0.00;0.00;;;;;;;;;;5109436;28;20197;-72
2021/05/14 08:50:13;;;;;;;0.10;0.10;;;;;;;;;;5109425;28;20159;-71
2021/05/14 08:52:43;;;;;;;0.10;0.10;;;;;;;;;;5091083;28;20205;-71
2021/05/14 08:55:11;;;;;;;1.55;0.28;;;;;;;;;;5109387;28;20162;-71
2021/05/14 08:57:38;;;;;;;0.13;0.13;;;;;;;;;;5091131;28;20216;-71
2021/05/14 09:00:06;;;;;;;3.53;0.40;;;;;;;;;;5090903;28;20212;-70
2021/05/14 09:02:33;;;;;;;0.00;0.00;;;;;;;;;;5109130;28;20178;-71
2021/05/14 09:05:19;;;;;;;0.40;0.30;;;;;;;;;;5109309;28;20165;-71
2021/05/14 09:07:46;;;;;;;0.10;0.10;;;;;;;;;;5090571;28;20194;-70
2021/05/14 09:10:12;;;;;;;0.10;0.10;;;;;;;;;;5108346;28;20203;-70
2021/05/14 09:12:39;;;;;;;0.10;0.10;;;;;;;;;;5107579;28;20209;-71
2021/05/14 09:15:25;;;;;;;0.00;0.00;;;;;;;;;;5090887;28;20163;-71
2021/05/14 09:18:11;;;;;;;0.00;0.00;;;;;;;;;;5107983;28;20183;-70
2021/05/14 09:20:47;;;;;;;0.10;0.10;;;;;;;;;;5109004;28;20642;-70
2021/05/14 09:23:16;;;;;;;0.10;0.10;;;;;;;;;;5107220;28;20680;-70
2021/05/14 09:25:59;;;;;;;0.00;0.00;;;;;;;;;;5108276;28;20254;-70
2021/05/14 09:28:35;;;;;;;0.30;0.10;;;;;;;;;;5109028;28;20163;-70
2021/05/14 09:31:08;;;;;;;0.00;0.00;;;;;;;;;;5109144;28;20496;-71
2021/05/14 09:33:36;;;;;;;0.10;0.10;;;;;;;;;;5090665;28;20194;-71
2021/05/14 09:36:04;;;;;;;0.20;0.20;;;;;;;;;;5108760;28;20214;-71
2021/05/14 09:38:38;;;;;;;0.00;0.00;;;;;;;;;;5090758;28;20163;-70
2021/05/14 09:41:05;;;;;;;0.00;0.00;;;;;;;;;;5087267;28;20237;-71
2021/05/14 09:43:31;;;;;;;0.35;0.35;;;;;;;;;;5088602;28;20199;-70
2021/05/14 09:45:57;;;;;;;0.10;0.10;;;;;;;;;;5087026;28;20252;-70
2021/05/14 09:48:27;;;;;;;0.00;0.00;;;;;;;;;;5088786;28;20187;-71
2021/05/14 09:50:55;;;;;;;0.20;0.20;;;;;;;;;;5088526;28;20156;-70
2021/05/14 09:53:22;;;;;;;0.10;0.10;;;;;;;;;;5088492;28;20186;-70
2021/05/14 09:55:52;;;;;;;0.10;0.10;;;;;;;;;;5087241;28;20192;-70
2021/05/14 09:58:21;;;;;;;0.20;0.20;;;;;;;;;;5088398;28;20152;-70
2021/05/14 10:00:48;;;;;;;0.00;0.00;;;;;;;;;;5088365;28;20636;-71
2021/05/14 10:03:21;;;;;;;0.00;0.00;;;;;;;;;;5088247;28;20179;-71
2021/05/14 10:05:48;;;;;;;0.00;0.00;;;;;;;;;;5088410;28;20758;-70
2021/05/14 10:08:15;;;;;;;0.10;0.10;;;;;;;;;;5087376;28;20163;-71
2021/05/14 10:10:41;;;;;;;0.00;0.00;;;;;;;;;;5088577;28;20186;-71
2021/05/14 10:13:09;;;;;;;0.10;0.10;;;;;;;;;;5086994;28;20188;-68
2021/05/14 10:15:35;;;;;;;0.45;0.45;;;;;;;;;;5088275;28;20183;-69
2021/05/14 10:18:05;;;;;;;0.00;0.00;;;;;;;;;;5087924;28;20194;-69
2021/05/14 10:20:32;;;;;;;0.22;0.22;;;;;;;;;;5088358;28;20148;-69
2021/05/14 10:23:00;;;;;;;0.10;0.10;;;;;;;;;;5087936;28;20172;-69
2021/05/14 10:25:39;;;;;;;0.20;0.20;;;;;;;;;;5087382;28;20219;-69
2021/05/14 10:28:15;;;;;;;12.35;0.50;;;;;;;;;;5087541;28;20163;-69
2021/05/14 10:31:04;;;;;;;0.38;0.17;;;;;;;;;;5090822;28;20170;-69
2021/05/14 10:33:39;;;;;;;0.00;0.00;;;;;;;;;;5090874;28;20191;-69
2021/05/14 10:36:11;;;;;;;0.10;0.10;;;;;;;;;;5090212;28;20199;-68
2021/05/14 10:38:37;;;;;;;0.10;0.10;;;;;;;;;;5090344;28;20160;-69
2021/05/14 10:41:22;;;;;;;0.15;0.15;;;;;;;;;;5090280;28;20223;-69
2021/05/14 10:43:59;;;;;;;0.38;0.38;;;;;;;;;;5089923;28;20172;-70
2021/05/14 10:46:29;;;;;;;0.10;0.10;;;;;;;;;;5089634;28;20229;-70
2021/05/14 10:49:16;;;;;;;0.08;0.08;;;;;;;;;;5090170;28;20183;-70
2021/05/14 10:51:51;;;;;;;0.63;0.45;;;;;;;;;;5091472;28;20156;-70
2021/05/14 10:54:36;;;;;;;0.05;0.05;;;;;;;;;;5090904;28;20187;-69
2021/05/14 10:57:02;;;;;;;0.00;0.00;;;;;;;;;;5090934;28;20199;-69
2021/05/14 10:59:38;;;;;;;0.00;0.00;;;;;;;;;;5091074;28;20183;-70
2021/05/14 11:02:23;;;;;;;0.00;0.00;;;;;;;;;;5089201;28;20178;-70
2021/05/14 11:04:49;;;;;;;0.05;0.05;;;;;;;;;;5090974;28;20164;-70
2021/05/14 11:07:45;;;;;;;0.00;0.00;;;;;;;;;;5090938;28;20183;-69
2021/05/14 11:10:14;;;;;;;0.20;0.20;;;;;;;;;;5009225;28;20207;-70
2021/05/14 11:12:41;;;;;;;0.10;0.10;;;;;;;;;;4992757;28;20210;-70
2021/05/14 11:15:19;;;;;;;0.10;0.10;;;;;;;;;;5009135;28;20207;-70
2021/05/14 11:18:05;;;;;;;0.10;0.10;;;;;;;;;;5009169;28;20163;-70
2021/05/14 11:21:00;;;;;;;0.10;0.10;;;;;;;;;;4998931;28;20197;-70
2021/05/14 11:23:42;;;;;;;0.32;0.32;;;;;;;;;;4995952;28;20202;-69
2021/05/14 11:26:09;;;;;;;0.00;0.00;;;;;;;;;;5008884;28;20195;-70
2021/05/14 11:28:39;;;;;;;0.10;0.10;;;;;;;;;;5008897;28;20195;-70
2021/05/14 11:31:06;;;;;;;0.10;0.10;;;;;;;;;;5009016;28;20170;-70
2021/05/14 11:33:32;;;;;;;0.10;0.10;;;;;;;;;;4992389;28;20224;-70
2021/05/14 11:35:58;;;;;;;0.10;0.10;;;;;;;;;;5008507;28;20198;-70
2021/05/14 11:38:24;;;;;;;0.00;0.00;;;;;;;;;;5008723;28;20201;-70
2021/05/14 11:40:51;;;;;;;0.40;0.40;;;;;;;;;;5007648;28;20226;-70
2021/05/14 11:43:17;;;;;;;0.00;0.00;;;;;;;;;;4992475;28;20178;-70
2021/05/14 11:45:45;;;;;;;0.30;0.10;;;;;;;;;;5002342;28;20276;-70
2021/05/14 11:48:13;;;;;;;1.83;0.52;;;;;;;;;;5070017;28;20153;-70
2021/05/14 11:50:40;;;;;;;0.85;0.28;;;;;;;;;;5068953;28;20184;-70
2021/05/14 11:53:08;;;;;;;0.00;0.00;;;;;;;;;;5070347;28;20194;-69
2021/05/14 11:55:38;;;;;;;0.00;0.00;;;;;;;;;;5069922;28;20680;-69
2021/05/14 11:58:05;;;;;;;0.00;0.00;;;;;;;;;;5070197;28;20164;-70
2021/05/14 12:00:31;;;;;;;0.10;0.10;;;;;;;;;;5069115;28;20179;-69
2021/05/14 12:02:59;;;;;;;0.15;0.15;;;;;;;;;;5081152;28;20661;-70
2021/05/14 12:05:26;;;;;;;0.10;0.10;;;;;;;;;;5069920;28;20199;-70
2021/05/14 12:07:53;;;;;;;0.00;0.00;;;;;;;;;;5068723;28;20180;-70
2021/05/14 12:10:20;;;;;;;0.00;0.00;;;;;;;;;;5069844;28;20195;-70
2021/05/14 12:12:47;;;;;;;0.00;0.00;;;;;;;;;;5069560;28;20310;-70
2021/05/14 12:15:24;;;;;;;0.10;0.10;;;;;;;;;;5069434;28;20180;-70
2021/05/14 12:18:01;;;;;;;0.00;0.00;;;;;;;;;;5069589;28;20221;-70
2021/05/14 12:20:28;;;;;;;0.00;0.00;;;;;;;;;;5068352;28;20165;-70
2021/05/14 12:22:59;;;;;;;0.03;0.03;;;;;;;;;;5069485;28;20194;-69
2021/05/14 12:25:26;;;;;;;0.45;0.45;;;;;;;;;;5069553;28;20175;-70
2021/05/14 12:27:53;;;;;;;0.10;0.10;;;;;;;;;;5069588;28;20164;-70
2021/05/14 12:30:19;;;;;;;19.08;1.05;;;;;;;;;;5069238;28;20184;-70
2021/05/14 12:32:58;;;;;;;0.00;0.00;;;;;;;;;;5068022;28;20552;-70
2021/05/14 12:35:25;;;;;;;0.00;0.00;;;;;;;;;;5069316;28;20199;-70
2021/05/14 12:37:58;;;;;;;0.00;0.00;;;;;;;;;;5069112;28;20585;-70
2021/05/14 12:40:28;;;;;;;0.00;0.00;;;;;;;;;;5089434;28;20225;-70
2021/05/14 12:43:03;;;;;;;0.00;0.00;;;;;;;;;;5107972;28;20252;-71
2021/05/14 12:45:29;;;;;;;0.20;0.20;;;;;;;;;;5105022;28;20174;-70
2021/05/14 12:47:56;;;;;;;15.57;0.63;;;;;;;;;;5091162;28;20179;-70
2021/05/14 12:50:26;;;;;;;0.10;0.10;;;;;;;;;;5108832;28;20535;-70
2021/05/14 12:52:52;;;;;;;0.10;0.10;;;;;;;;;;5107141;28;20694;-70
2021/05/14 12:55:20;;;;;;;0.00;0.00;;;;;;;;;;5107552;28;20262;-70
2021/05/14 12:57:49;;;;;;;0.05;0.05;;;;;;;;;;5090626;28;20186;-70
2021/05/14 13:00:17;;;;;;;0.10;0.10;;;;;;;;;;5102305;28;20622;-70
2021/05/14 13:02:56;;;;;;;0.20;0.20;;;;;;;;;;5105280;28;20206;-70
2021/05/14 13:05:36;;;;;;;0.00;0.00;;;;;;;;;;5090716;28;20674;-70
2021/05/14 13:08:06;;;;;;;0.03;0.03;;;;;;;;;;5087767;28;20239;-70
2021/05/14 13:10:34;;;;;;;0.10;0.10;;;;;;;;;;5067108;28;21031;-70
2021/05/14 13:13:00;;;;;;;0.00;0.00;;;;;;;;;;5080915;28;20723;-70
2021/05/14 13:15:26;;;;;;;0.10;0.10;;;;;;;;;;5084543;28;20158;-70
2021/05/14 13:17:53;;;;;;;0.10;0.10;;;;;;;;;;5087093;28;20172;-71
2021/05/14 13:20:19;;;;;;;0.10;0.10;;;;;;;;;;5088384;28;20202;-71
2021/05/14 13:22:45;;;;;;;0.10;0.10;;;;;;;;;;5088578;28;20156;-71
2021/05/14 13:25:12;;;;;;;0.10;0.10;;;;;;;;;;5086965;28;20171;-71
2021/05/14 13:27:40;;;;;;;0.00;0.00;;;;;;;;;;5086722;28;20216;-71
2021/05/14 13:30:10;;;;;;;0.00;0.00;;;;;;;;;;5088244;28;20196;-71
2021/05/14 13:32:37;;;;;;;0.10;0.10;;;;;;;;;;5088399;28;20195;-71
2021/05/14 13:35:04;;;;;;;0.00;0.00;;;;;;;;;;5086968;28;20180;-71
2021/05/14 13:37:31;;;;;;;0.10;0.10;;;;;;;;;;5088334;28;20522;-71
2021/05/14 13:39:57;;;;;;;0.00;0.00;;;;;;;;;;5086437;28;20227;-70
2021/05/14 13:42:23;;;;;;;3.00;0.55;;;;;;;;;;5088197;28;20175;-71
2021/05/14 13:44:49;;;;;;;0.10;0.10;;;;;;;;;;5086765;28;20169;-71
2021/05/14 13:47:15;;;;;;;0.00;0.00;;;;;;;;;;5087893;28;20172;-70
2021/05/14 13:49:42;;;;;;;0.10;0.10;;;;;;;;;;5087972;28;20618;-70
2021/05/14 13:52:08;;;;;;;0.73;0.73;;;;;;;;;;5082307;28;20259;-70
2021/05/14 13:54:34;;;;;;;0.10;0.10;;;;;;;;;;5087636;28;20198;-70
2021/05/14 13:57:01;;;;;;;0.00;0.00;;;;;;;;;;5088060;28;20172;-70
2021/05/14 13:59:27;;;;;;;0.10;0.10;;;;;;;;;;5088214;28;20164;-70
2021/05/14 14:01:53;;;;;;;0.20;0.20;;;;;;;;;;5096765;28;20163;-71
2021/05/14 14:04:19;;;;;;;0.10;0.10;;;;;;;;;;5087659;28;20211;-71
2021/05/14 14:06:45;;;;;;;0.30;0.30;;;;;;;;;;5091967;28;20175;-71
2021/05/14 14:09:12;;;;;;;0.00;0.00;;;;;;;;;;5073866;28;20164;-71
2021/05/14 14:11:38;;;;;;;0.10;0.10;;;;;;;;;;5100211;28;20167;-70
2021/05/14 14:14:05;;;;;;;0.32;0.32;;;;;;;;;;5093618;28;20234;-71
2021/05/14 14:16:31;;;;;;;0.10;0.10;;;;;;;;;;5112000;28;20156;-71
2021/05/14 14:18:58;;;;;;;0.10;0.10;;;;;;;;;;5112069;28;20167;-71
2021/05/14 14:21:24;;;;;;;0.10;0.10;;;;;;;;;;5094018;28;20182;-71
2021/05/14 14:23:51;;;;;;;0.10;0.10;;;;;;;;;;5111980;28;20195;-71
2021/05/14 14:26:17;;;;;;;0.10;0.10;;;;;;;;;;5112024;28;20174;-71
2021/05/14 14:28:43;;;;;;;0.10;0.10;;;;;;;;;;5112078;28;20164;-71
2021/05/14 14:31:09;;;;;;;0.10;0.10;;;;;;;;;;5093424;28;20194;-71
2021/05/14 14:33:35;;;;;;;0.10;0.10;;;;;;;;;;5111798;28;20203;-71
2021/05/14 14:36:03;;;;;;;0.30;0.30;;;;;;;;;;5111904;28;20163;-71
2021/05/14 14:38:29;;;;;;;0.20;0.20;;;;;;;;;;5111626;28;20171;-71
2021/05/14 14:40:55;;;;;;;0.10;0.10;;;;;;;;;;5092605;28;20248;-71
2021/05/14 14:43:21;;;;;;;0.10;0.10;;;;;;;;;;5109575;28;20192;-71
2021/05/14 14:45:48;;;;;;;0.00;0.00;;;;;;;;;;5092422;28;20171;-71
2021/05/14 14:48:15;;;;;;;0.10;0.10;;;;;;;;;;5093450;28;20255;-71
2021/05/14 14:50:42;;;;;;;0.00;0.00;;;;;;;;;;5111568;28;20192;-71
2021/05/14 14:53:08;;;;;;;0.65;0.65;;;;;;;;;;5111544;28;20218;-71